createdAt,value
2018-12-13T00:00:35.187Z,12.10
2018-12-13T00:03:01.220Z,12.47
2018-12-13T00:05:27.239Z,12.07
2018-12-13T00:07:53.275Z,12.27
2018-12-13T00:10:19.319Z,10.80
2018-12-13T00:12:45.351Z,11.43
2018-12-13T00:15:11.476Z,11.87
2018-12-13T00:17:37.475Z,11.77
2018-12-13T00:20:04.008Z,11.53
2018-12-13T00:22:30.019Z,12.20
2018-12-13T00:24:56.060Z,12.27
2018-12-13T00:27:22.079Z,13.83
2018-12-13T00:29:48.091Z,13.57
2018-12-13T00:32:14.118Z,12.77
2018-12-13T00:34:40.140Z,11.50
2018-12-13T00:37:06.267Z,12.20
2018-12-13T00:39:32.291Z,12.87
2018-12-13T00:41:58.306Z,12.87
2018-12-13T00:44:24.311Z,13.17
2018-12-13T00:46:50.339Z,11.67
2018-12-13T00:49:16.369Z,12.27
2018-12-13T00:51:42.379Z,11.90
2018-12-13T00:54:08.501Z,13.07
2018-12-13T00:56:34.535Z,14.73
2018-12-13T00:59:00.539Z,14.10
2018-12-13T01:01:26.563Z,14.20
2018-12-13T01:03:52.618Z,14.00
2018-12-13T01:06:18.620Z,15.03
2018-12-13T01:08:44.658Z,14.60
2018-12-13T01:11:10.878Z,16.30
2018-12-13T01:13:36.947Z,14.50
2018-12-13T01:16:03.121Z,13.33
2018-12-13T01:18:29.138Z,13.60
2018-12-13T01:20:55.162Z,13.63
2018-12-13T01:23:21.171Z,12.90
2018-12-13T01:25:47.191Z,13.63
2018-12-13T01:28:20.275Z,13.57
2018-12-13T01:30:46.287Z,12.87
2018-12-13T01:33:12.300Z,14.70
2018-12-13T01:35:38.328Z,13.47
2018-12-13T01:38:04.372Z,13.90
2018-12-13T01:40:30.394Z,13.47
2018-12-13T01:42:56.502Z,13.23
2018-12-13T01:45:22.523Z,13.10
2018-12-13T01:47:48.535Z,12.97
2018-12-13T01:50:14.575Z,13.27
2018-12-13T01:52:40.707Z,13.37
2018-12-13T01:55:08.335Z,13.33
2018-12-13T01:57:34.342Z,13.77
2018-12-13T02:00:08.173Z,12.90
2018-12-13T02:02:34.204Z,12.63
2018-12-13T02:05:00.219Z,12.27
2018-12-13T02:07:26.227Z,11.87
2018-12-13T02:09:52.239Z,12.40
2018-12-13T02:12:18.284Z,11.93
2018-12-13T02:14:44.284Z,12.90
2018-12-13T02:17:10.302Z,13.20
2018-12-13T02:19:36.345Z,12.33
2018-12-13T02:22:02.475Z,12.13
2018-12-13T02:24:28.498Z,12.10
2018-12-13T02:26:54.619Z,11.20
2018-12-13T02:29:20.627Z,12.47
2018-12-13T02:31:46.692Z,11.47
2018-12-13T02:34:12.692Z,11.83
2018-12-13T02:36:38.699Z,12.07
2018-12-13T02:39:05.128Z,11.70
2018-12-13T02:41:31.151Z,11.90
2018-12-13T02:43:57.168Z,11.97
2018-12-13T02:46:30.240Z,11.83
2018-12-13T02:49:06.914Z,11.93
2018-12-13T02:51:33.352Z,11.60
2018-12-13T02:53:59.365Z,11.53
2018-12-13T02:56:25.500Z,11.27
2018-12-13T02:58:51.723Z,10.80
2018-12-13T03:01:17.765Z,11.60
2018-12-13T03:03:43.787Z,11.23
2018-12-13T03:06:09.807Z,10.20
2018-12-13T03:08:35.835Z,11.37
2018-12-13T03:11:01.855Z,10.83
2018-12-13T03:13:28.192Z,10.07
2018-12-13T03:15:54.204Z,9.67
2018-12-13T03:18:20.216Z,10.93
2018-12-13T03:20:46.255Z,12.17
2018-12-13T03:23:12.275Z,10.50
2018-12-13T03:25:38.296Z,11.13
2018-12-13T03:28:04.428Z,10.97
2018-12-13T03:30:30.447Z,11.47
2018-12-13T03:32:56.613Z,10.30
2018-12-13T03:35:22.620Z,10.53
2018-12-13T03:37:48.651Z,12.47
2018-12-13T03:40:14.674Z,11.50
2018-12-13T03:42:40.954Z,12.90
2018-12-13T03:45:07.310Z,12.07
2018-12-13T03:47:33.320Z,13.07
2018-12-13T03:49:59.349Z,13.60
2018-12-13T03:52:25.363Z,12.80
2018-12-13T03:54:51.374Z,12.30
2018-12-13T03:57:17.391Z,12.60
2018-12-13T03:59:43.394Z,13.60
2018-12-13T04:02:09.415Z,13.63
2018-12-13T04:04:35.435Z,13.33
2018-12-13T04:07:01.453Z,13.73
2018-12-13T04:09:27.494Z,13.27
2018-12-13T04:11:53.599Z,13.47
2018-12-13T04:14:19.723Z,13.83
2018-12-13T04:16:45.856Z,14.33
2018-12-13T04:19:11.923Z,12.67
2018-12-13T04:21:37.977Z,13.47
2018-12-13T04:24:03.988Z,13.33
2018-12-13T04:26:30.010Z,15.40
2018-12-13T04:28:56.031Z,14.30
2018-12-13T04:31:22.045Z,13.30
2018-12-13T04:33:48.085Z,13.53
2018-12-13T04:36:14.095Z,12.93
2018-12-13T04:38:40.121Z,14.17
2018-12-13T04:41:06.143Z,14.83
2018-12-13T04:43:32.161Z,13.70
2018-12-13T04:45:58.257Z,13.87
2018-12-13T04:48:24.289Z,13.47
2018-12-13T04:50:50.310Z,13.20
2018-12-13T04:53:16.326Z,14.10
2018-12-13T04:55:42.346Z,13.63
2018-12-13T04:58:08.363Z,13.73
2018-12-13T05:00:34.498Z,16.00
2018-12-13T05:03:00.522Z,14.57
2018-12-13T05:05:26.536Z,14.90
2018-12-13T05:07:52.709Z,14.67
2018-12-13T05:10:31.120Z,14.93
2018-12-13T05:12:57.154Z,14.03
2018-12-13T05:15:23.174Z,15.13
2018-12-13T05:17:49.203Z,15.77
2018-12-13T05:20:15.218Z,14.40
2018-12-13T05:22:41.241Z,14.83
2018-12-13T05:25:07.359Z,15.27
2018-12-13T05:27:33.358Z,15.93
2018-12-13T05:29:59.383Z,15.70
2018-12-13T05:32:25.413Z,14.13
2018-12-13T05:34:51.559Z,15.40
2018-12-13T05:37:17.622Z,15.60
2018-12-13T05:39:43.633Z,15.03
2018-12-13T05:42:09.634Z,15.70
2018-12-13T05:44:35.660Z,14.70
2018-12-13T05:47:01.670Z,16.07
2018-12-13T05:49:27.679Z,14.87
2018-12-13T05:51:53.707Z,14.47
2018-12-13T05:54:19.717Z,14.30
2018-12-13T05:56:45.741Z,14.63
2018-12-13T05:59:11.863Z,14.00
2018-12-13T06:01:38.170Z,15.20
2018-12-13T06:04:04.247Z,14.90
2018-12-13T06:06:30.268Z,14.70
2018-12-13T06:08:56.275Z,13.63
2018-12-13T06:11:22.278Z,14.03
2018-12-13T06:13:48.289Z,15.57
2018-12-13T06:16:14.307Z,14.10
2018-12-13T06:18:40.342Z,14.70
2018-12-13T06:21:11.737Z,14.83
2018-12-13T06:23:34.408Z,13.80
2018-12-13T06:26:00.480Z,14.20
2018-12-13T06:28:26.486Z,14.23
2018-12-13T06:30:52.591Z,14.60
2018-12-13T06:33:24.671Z,14.33
2018-12-13T06:35:46.655Z,14.33
2018-12-13T06:38:12.900Z,14.13
2018-12-13T06:40:38.947Z,12.73
2018-12-13T06:43:05.183Z,13.30
2018-12-13T06:45:31.203Z,13.23
2018-12-13T06:47:57.203Z,13.83
2018-12-13T06:50:23.225Z,14.97
2018-12-13T06:52:49.348Z,14.93
2018-12-13T06:55:15.372Z,14.70
2018-12-13T06:57:41.391Z,14.33
2018-12-13T07:00:07.721Z,14.23
2018-12-13T07:02:33.962Z,13.17
2018-12-13T07:04:59.979Z,14.17
2018-12-13T07:07:26.087Z,14.37
2018-12-13T07:09:52.095Z,14.67
2018-12-13T07:12:18.116Z,14.57
2018-12-13T07:14:44.129Z,13.63
2018-12-13T07:17:10.144Z,13.90
2018-12-13T07:19:36.291Z,14.37
2018-12-13T07:22:02.454Z,13.87
2018-12-13T07:24:28.468Z,15.03
2018-12-13T07:26:54.490Z,14.53
2018-12-13T07:29:20.503Z,14.20
2018-12-13T07:31:46.639Z,13.73
2018-12-13T07:34:12.638Z,14.07
2018-12-13T07:36:38.871Z,14.63
2018-12-13T07:39:06.217Z,14.10
2018-12-13T07:41:32.267Z,14.73
2018-12-13T07:43:58.364Z,14.43
2018-12-13T07:46:24.395Z,13.63
2018-12-13T07:48:56.261Z,12.93
2018-12-13T07:51:18.435Z,13.37
2018-12-13T07:53:44.444Z,13.87
2018-12-13T07:56:10.583Z,13.03
2018-12-13T07:58:36.587Z,13.63
2018-12-13T08:01:02.816Z,12.97
2018-12-13T08:03:28.859Z,13.73
2018-12-13T08:05:54.875Z,13.43
2018-12-13T08:08:21.240Z,13.30
2018-12-13T08:10:47.494Z,13.00
2018-12-13T08:13:13.552Z,13.27
2018-12-13T08:15:39.590Z,13.80
2018-12-13T08:18:05.727Z,14.53
2018-12-13T08:20:31.755Z,13.50
2018-12-13T08:22:57.780Z,13.17
2018-12-13T08:25:23.793Z,13.50
2018-12-13T08:27:49.867Z,12.90
2018-12-13T08:30:16.030Z,12.53
2018-12-13T08:32:42.133Z,13.23
2018-12-13T08:35:08.161Z,12.67
2018-12-13T08:37:34.303Z,12.33
2018-12-13T08:40:00.316Z,13.83
2018-12-13T08:42:26.611Z,13.77
2018-12-13T08:44:52.658Z,13.83
2018-12-13T08:47:18.701Z,13.27
2018-12-13T08:49:44.715Z,14.47
2018-12-13T08:52:10.739Z,12.07
2018-12-13T08:54:36.787Z,13.23
2018-12-13T08:57:03.110Z,14.37
2018-12-13T08:59:29.119Z,12.83
2018-12-13T09:01:55.151Z,14.83
2018-12-13T09:04:21.235Z,13.57
2018-12-13T09:06:47.383Z,12.57
2018-12-13T09:09:13.515Z,15.00
2018-12-13T09:11:46.738Z,13.83
2018-12-13T09:14:12.751Z,13.20
2018-12-13T09:16:38.783Z,13.17
2018-12-13T09:19:04.811Z,13.30
2018-12-13T09:21:30.824Z,12.67
2018-12-13T09:23:56.858Z,12.83
2018-12-13T09:26:29.800Z,12.70
2018-12-13T09:28:55.816Z,13.83
2018-12-13T09:31:21.831Z,12.83
2018-12-13T09:33:47.884Z,14.43
2018-12-13T09:36:13.897Z,14.03
2018-12-13T09:38:40.106Z,14.23
2018-12-13T09:41:06.276Z,13.67
2018-12-13T09:43:32.889Z,14.97
2018-12-13T09:45:58.943Z,12.87
2018-12-13T09:48:25.071Z,14.27
2018-12-13T09:50:51.081Z,13.60
2018-12-13T09:53:17.093Z,13.97
2018-12-13T09:55:43.115Z,13.67
2018-12-13T09:58:16.151Z,13.13
2018-12-13T10:00:42.155Z,14.47
2018-12-13T10:03:08.163Z,13.20
2018-12-13T10:05:34.194Z,12.70
2018-12-13T10:08:00.202Z,13.47
2018-12-13T10:10:26.447Z,13.03
2018-12-13T10:12:52.479Z,14.30
2018-12-13T10:15:18.488Z,13.00
2018-12-13T10:17:44.528Z,14.13
2018-12-13T10:20:10.594Z,13.33
2018-12-13T10:22:36.723Z,12.23
2018-12-13T10:25:03.883Z,13.07
2018-12-13T10:27:29.909Z,13.17
2018-12-13T10:29:55.930Z,13.43
2018-12-13T10:32:21.961Z,12.90
2018-12-13T10:34:54.976Z,13.97
2018-12-13T10:37:21.000Z,13.17
2018-12-13T10:39:47.077Z,12.37
2018-12-13T10:42:13.205Z,12.60
2018-12-13T10:44:41.242Z,12.70
2018-12-13T10:47:07.481Z,12.33
2018-12-13T10:49:33.502Z,13.77
2018-12-13T10:51:59.529Z,12.80
2018-12-13T10:54:25.676Z,12.00
2018-12-13T10:56:51.687Z,13.40
2018-12-13T10:59:17.703Z,13.13
2018-12-13T11:01:45.739Z,12.60
2018-12-13T11:04:11.755Z,13.77
2018-12-13T11:06:37.787Z,13.20
2018-12-13T11:09:04.741Z,12.30
2018-12-13T11:11:30.873Z,13.50
2018-12-13T11:13:56.999Z,12.67
2018-12-13T11:16:23.019Z,13.07
2018-12-13T11:18:49.053Z,12.10
2018-12-13T11:21:17.466Z,12.30
2018-12-13T11:23:43.225Z,12.20
2018-12-13T11:26:09.475Z,13.43
2018-12-13T11:29:02.045Z,12.37
2018-12-13T11:31:28.175Z,12.47
2018-12-13T11:33:54.178Z,12.57
2018-12-13T11:36:20.207Z,12.03
2018-12-13T11:38:46.227Z,12.83
2018-12-13T11:41:12.267Z,12.40
2018-12-13T11:43:38.287Z,11.83
2018-12-13T11:46:04.311Z,11.13
2018-12-13T11:48:30.325Z,12.10
2018-12-13T11:50:56.357Z,12.50
2018-12-13T11:53:22.475Z,11.47
2018-12-13T11:55:48.707Z,11.03
2018-12-13T11:58:14.838Z,12.07
2018-12-13T12:00:41.082Z,11.87
2018-12-13T12:03:07.198Z,11.33
2018-12-13T12:05:33.337Z,12.17
2018-12-13T12:07:59.354Z,12.80
2018-12-13T12:10:25.383Z,12.80
2018-12-13T12:12:51.403Z,13.13
2018-12-13T12:15:17.627Z,12.73
2018-12-13T12:17:43.646Z,11.77
2018-12-13T12:20:09.663Z,12.07
2018-12-13T12:22:35.687Z,12.70
2018-12-13T12:25:02.450Z,12.20
2018-12-13T12:27:28.544Z,13.73
2018-12-13T12:29:54.575Z,12.97
2018-12-13T12:32:20.599Z,13.40
2018-12-13T12:34:46.715Z,14.37
2018-12-13T12:37:12.762Z,14.03
2018-12-13T12:39:38.782Z,14.30
2018-12-13T12:42:04.807Z,14.00
2018-12-13T12:44:32.842Z,13.87
2018-12-13T12:46:58.981Z,13.70
2018-12-13T12:49:25.381Z,13.93
2018-12-13T12:51:51.645Z,13.10
2018-12-13T12:54:17.667Z,13.80
2018-12-13T12:56:50.611Z,13.73
2018-12-13T12:59:16.631Z,14.83
2018-12-13T13:01:42.671Z,14.37
2018-12-13T13:04:08.697Z,14.17
2018-12-13T13:06:34.832Z,13.23
2018-12-13T13:09:00.947Z,12.60
2018-12-13T13:11:27.078Z,13.47
2018-12-13T13:13:53.095Z,12.37
2018-12-13T13:16:19.142Z,13.73
2018-12-13T13:18:45.167Z,14.30
2018-12-13T13:21:11.471Z,14.87
2018-12-13T13:23:37.543Z,13.67
2018-12-13T13:26:03.675Z,14.07
2018-12-13T13:28:29.706Z,13.47
2018-12-13T13:30:55.833Z,13.43
2018-12-13T13:33:21.863Z,13.40
2018-12-13T13:35:47.875Z,13.00
2018-12-13T13:38:13.895Z,13.63
2018-12-13T13:40:40.016Z,14.70
2018-12-13T13:43:06.045Z,13.37
2018-12-13T13:45:32.070Z,13.87
2018-12-13T13:47:58.109Z,13.10
2018-12-13T13:50:24.142Z,14.10
2018-12-13T13:52:50.184Z,15.60
2018-12-13T13:55:16.310Z,13.77
2018-12-13T13:57:42.345Z,12.77
2018-12-13T14:00:09.457Z,13.00
2018-12-13T14:02:35.625Z,14.03
2018-12-13T14:05:01.759Z,13.37
2018-12-13T14:07:29.763Z,13.53
2018-12-13T14:09:59.446Z,13.13
2018-12-13T14:12:25.472Z,13.90
2018-12-13T14:14:51.536Z,14.53
2018-12-13T14:17:17.662Z,14.53
2018-12-13T14:19:43.671Z,14.57
2018-12-13T14:22:09.708Z,13.43
2018-12-13T14:24:35.727Z,13.93
2018-12-13T14:27:01.867Z,13.93
2018-12-13T14:29:27.896Z,14.07
2018-12-13T14:31:54.011Z,13.23
2018-12-13T14:34:20.151Z,13.77
2018-12-13T14:36:46.168Z,13.40
2018-12-13T14:39:12.188Z,12.33
2018-12-13T14:41:38.215Z,13.33
2018-12-13T14:44:04.229Z,12.67
2018-12-13T14:46:30.251Z,13.73
2018-12-13T14:48:56.272Z,12.67
2018-12-13T14:51:22.387Z,13.53
2018-12-13T14:53:48.419Z,12.17
2018-12-13T14:56:14.439Z,12.07
2018-12-13T14:58:40.539Z,13.43
2018-12-13T15:01:06.682Z,12.40
2018-12-13T15:03:32.755Z,13.20
2018-12-13T15:05:58.821Z,13.97
2018-12-13T15:08:24.935Z,13.60
2018-12-13T15:10:50.952Z,13.30
2018-12-13T15:13:16.979Z,11.77
2018-12-13T15:15:42.999Z,11.30
2018-12-13T15:18:09.026Z,10.73
2018-12-13T15:20:35.037Z,11.30
2018-12-13T15:23:01.055Z,12.53
2018-12-13T15:25:27.077Z,11.73
2018-12-13T15:27:53.084Z,13.10
2018-12-13T15:30:19.101Z,13.80
2018-12-13T15:32:45.111Z,13.20
2018-12-13T15:35:11.345Z,13.23
2018-12-13T15:37:37.370Z,12.47
2018-12-13T15:40:03.892Z,13.70
2018-12-13T15:42:30.012Z,13.60
2018-12-13T15:44:56.085Z,14.13
2018-12-13T15:47:22.108Z,14.47
2018-12-13T15:49:48.215Z,13.23
2018-12-13T15:52:14.227Z,13.97
2018-12-13T15:54:40.238Z,12.07
2018-12-13T15:57:06.250Z,13.67
2018-12-13T15:59:32.272Z,14.07
2018-12-13T16:01:58.311Z,13.60
2018-12-13T16:04:24.343Z,13.83
2018-12-13T16:06:50.588Z,14.53
2018-12-13T16:09:16.606Z,13.77
2018-12-13T16:11:42.832Z,14.03
2018-12-13T16:14:08.852Z,14.00
2018-12-13T16:16:34.866Z,13.73
2018-12-13T16:19:00.888Z,12.90
2018-12-13T16:21:27.004Z,11.73
2018-12-13T16:23:53.011Z,12.50
2018-12-13T16:26:19.041Z,13.67
2018-12-13T16:28:45.046Z,12.73
2018-12-13T16:31:11.074Z,12.43
2018-12-13T16:33:44.155Z,12.17
2018-12-13T16:36:10.179Z,12.57
2018-12-13T16:38:36.303Z,11.90
2018-12-13T16:41:02.531Z,11.17
2018-12-13T16:43:28.568Z,12.27
2018-12-13T16:45:54.599Z,12.77
2018-12-13T16:48:20.615Z,12.83
2018-12-13T16:50:46.631Z,13.30
2018-12-13T16:53:12.660Z,11.97
2018-12-13T16:55:38.699Z,12.53
2018-12-13T16:58:04.822Z,12.57
2018-12-13T17:00:30.847Z,12.27
2018-12-13T17:02:56.863Z,12.40
2018-12-13T17:05:22.878Z,12.27
2018-12-13T17:07:49.003Z,12.83
2018-12-13T17:10:16.849Z,12.10
2018-12-13T17:12:43.059Z,12.43
2018-12-13T17:15:09.087Z,11.77
2018-12-13T17:17:35.199Z,11.50
2018-12-13T17:20:01.441Z,12.10
2018-12-13T17:22:27.451Z,11.80
2018-12-13T17:24:53.455Z,11.37
2018-12-13T17:27:19.581Z,11.47
2018-12-13T17:29:45.605Z,11.30
2018-12-13T17:32:11.638Z,10.87
2018-12-13T17:34:37.649Z,10.80
2018-12-13T17:37:03.679Z,10.43
2018-12-13T17:39:29.682Z,10.40
2018-12-13T17:41:55.700Z,10.47
2018-12-13T17:44:21.711Z,10.30
2018-12-13T17:46:47.728Z,9.97
2018-12-13T17:49:13.742Z,10.60
2018-12-13T17:51:39.760Z,9.27
2018-12-13T17:54:05.875Z,9.90
2018-12-13T17:56:32.111Z,10.57
2018-12-13T17:58:58.138Z,11.53
2018-12-13T18:01:24.163Z,10.40
2018-12-13T18:03:50.542Z,10.10
2018-12-13T18:06:16.559Z,9.90
2018-12-13T18:08:42.571Z,10.10
2018-12-13T18:11:08.608Z,9.23
2018-12-13T18:13:34.642Z,10.53
2018-12-13T18:16:00.831Z,11.17
2018-12-13T18:18:26.883Z,10.37
2018-12-13T18:20:52.996Z,10.23
2018-12-13T18:23:19.009Z,10.47
2018-12-13T18:25:45.070Z,9.70
2018-12-13T18:28:11.091Z,10.87
2018-12-13T18:30:37.119Z,10.07
2018-12-13T18:33:03.146Z,10.30
2018-12-13T18:35:29.158Z,10.20
2018-12-13T18:37:55.180Z,9.73
2018-12-13T18:40:21.206Z,10.07
2018-12-13T18:42:47.217Z,9.13
2018-12-13T18:45:13.689Z,9.83
2018-12-13T18:47:39.695Z,11.17
2018-12-13T18:50:05.941Z,10.30
2018-12-13T18:52:31.968Z,11.27
2018-12-13T18:54:57.981Z,11.57
2018-12-13T18:57:23.987Z,10.37
2018-12-13T18:59:50.019Z,10.27
2018-12-13T19:02:16.032Z,10.20
2018-12-13T19:04:42.226Z,10.60
2018-12-13T19:07:08.714Z,9.27
2018-12-13T19:09:34.716Z,10.00
2018-12-13T19:12:00.721Z,11.67
2018-12-13T19:14:26.857Z,11.90
2018-12-13T19:16:52.983Z,11.20
2018-12-13T19:19:19.031Z,11.63
2018-12-13T19:21:45.048Z,10.90
2018-12-13T19:24:11.195Z,11.20
2018-12-13T19:26:37.210Z,10.80
2018-12-13T19:29:03.228Z,11.13
2018-12-13T19:31:29.273Z,11.40
2018-12-13T19:33:55.271Z,10.37
2018-12-13T19:36:21.291Z,11.70
2018-12-13T19:38:47.627Z,10.43
2018-12-13T19:41:13.643Z,11.03
2018-12-13T19:43:39.659Z,10.57
2018-12-13T19:46:05.685Z,10.07
2018-12-13T19:48:31.690Z,10.97
2018-12-13T19:50:58.019Z,10.90
2018-12-13T19:53:24.160Z,11.53
2018-12-13T19:55:50.196Z,11.07
2018-12-13T19:58:16.235Z,10.97
2018-12-13T20:00:42.268Z,11.53
2018-12-13T20:03:08.389Z,11.17
2018-12-13T20:05:34.402Z,11.30
2018-12-13T20:08:00.427Z,10.63
2018-12-13T20:10:26.543Z,12.57
2018-12-13T20:12:52.580Z,11.10
2018-12-13T20:15:23.961Z,11.17
2018-12-13T20:17:46.692Z,10.57
2018-12-13T20:20:12.758Z,11.57
2018-12-13T20:22:38.783Z,11.07
2018-12-13T20:25:04.896Z,11.13
2018-12-13T20:27:31.015Z,11.13
2018-12-13T20:29:57.031Z,11.63
2018-12-13T20:32:23.583Z,10.87
2018-12-13T20:34:50.136Z,10.37
2018-12-13T20:37:16.175Z,11.43
2018-12-13T20:39:42.321Z,11.10
2018-12-13T20:42:08.431Z,11.10
2018-12-13T20:44:34.467Z,10.87
2018-12-13T20:47:00.478Z,11.17
2018-12-13T20:49:26.482Z,10.30
2018-12-13T20:51:52.603Z,10.17
2018-12-13T20:54:18.622Z,10.20
2018-12-13T20:56:44.630Z,9.57
2018-12-13T20:59:10.643Z,10.93
2018-12-13T21:01:36.675Z,10.80
2018-12-13T21:04:02.903Z,10.17
2018-12-13T21:06:28.922Z,10.27
2018-12-13T21:08:55.033Z,11.10
2018-12-13T21:11:21.171Z,10.97
2018-12-13T21:13:47.543Z,10.23
2018-12-13T21:16:13.687Z,11.07
2018-12-13T21:18:39.712Z,9.20
2018-12-13T21:21:05.859Z,10.33
2018-12-13T21:23:31.872Z,10.07
2018-12-13T21:25:57.987Z,9.63
2018-12-13T21:28:24.006Z,9.67
2018-12-13T21:30:50.022Z,10.20
2018-12-13T21:33:22.947Z,9.37
2018-12-13T21:35:49.332Z,9.40
2018-12-13T21:38:15.353Z,9.20
2018-12-13T21:40:41.379Z,9.17
2018-12-13T21:43:07.399Z,11.07
2018-12-13T21:45:33.416Z,9.50
2018-12-13T21:47:59.431Z,9.90
2018-12-13T21:50:25.443Z,9.07
2018-12-13T21:52:51.464Z,10.27
2018-12-13T21:55:17.611Z,8.97
2018-12-13T21:57:43.636Z,9.40
2018-12-13T22:00:10.075Z,8.87
2018-12-13T22:02:36.345Z,10.00
2018-12-13T22:05:03.363Z,9.73
2018-12-13T22:07:29.369Z,9.97
2018-12-13T22:09:55.492Z,10.47
2018-12-13T22:12:22.292Z,9.87
2018-12-13T22:14:48.552Z,10.10
2018-12-13T22:17:14.559Z,9.63
2018-12-13T22:19:41.115Z,9.67
2018-12-13T22:22:07.127Z,9.23
2018-12-13T22:24:33.139Z,8.97
2018-12-13T22:26:59.168Z,9.13
2018-12-13T22:29:25.279Z,9.10
2018-12-13T22:31:51.839Z,9.90
2018-12-13T22:34:17.892Z,8.80
2018-12-13T22:36:44.131Z,9.53
2018-12-13T22:39:10.524Z,9.63
2018-12-13T22:41:36.534Z,9.47
2018-12-13T22:44:02.767Z,8.50
2018-12-13T22:46:28.784Z,9.50
2018-12-13T22:48:54.790Z,9.10
2018-12-13T22:51:20.810Z,8.97
2018-12-13T22:53:46.927Z,9.30
2018-12-13T22:56:13.051Z,9.10
2018-12-13T22:58:39.072Z,7.20
2018-12-13T23:01:05.188Z,9.27
2018-12-13T23:03:31.211Z,9.23
2018-12-13T23:05:57.250Z,8.97
2018-12-13T23:08:23.263Z,9.83
2018-12-13T23:10:49.395Z,9.07
2018-12-13T23:13:15.627Z,8.43
2018-12-13T23:15:41.662Z,9.87
2018-12-13T23:18:07.771Z,11.23
2018-12-13T23:20:33.882Z,9.30
2018-12-13T23:22:59.895Z,9.60
2018-12-13T23:25:26.006Z,10.13
2018-12-13T23:27:52.158Z,9.97
2018-12-13T23:30:18.395Z,9.80
2018-12-13T23:32:44.526Z,10.37
2018-12-13T23:35:10.656Z,9.13
2018-12-13T23:37:36.670Z,9.70
2018-12-13T23:40:03.112Z,9.73
2018-12-13T23:42:29.119Z,9.90
2018-12-13T23:45:02.690Z,9.27
2018-12-13T23:47:28.707Z,10.30
2018-12-13T23:49:54.707Z,9.53
2018-12-13T23:52:20.728Z,10.37
2018-12-13T23:54:46.750Z,10.30
2018-12-13T23:57:12.774Z,11.07
2018-12-13T23:59:38.770Z,10.67
